Breda, Netherlands
Current Conditions -  °F | °C
As of 2:55 PM on Monday 20 Oct 2014 (Local Time) from EHGR Reporting Station
Broken Clouds Broken Clouds  
Wind Chill: 61°   Ceiling: 2500
Heat Index: 61°   Visibility: 6mi
Dew Point: 50°   Wind: 12mph
Humidity: 68%   Direction: 250°WSW
Pressure: 30"   Gusts: NA
Location:  51.56°N, 4.76°E
Report Text: EHGR 201255Z AUTO 25010KT 9999 FEW035 16/10 Q1016 BLU 23010KT 9999 SCT020 BKN025
Loading
Personal Weather Stations






























Interactive Weather Map
Tropical Storm Tracking
New forecast layout! Learn more

10-Day Weather Forecast

Advertisements
Track Severe Weather on mobile